createdAt,value
2019-03-20T00:02:01.153Z,97.78
2019-03-20T00:04:30.502Z,98.70
2019-03-20T00:09:48.041Z,98.76
2019-03-20T00:12:17.306Z,98.00
2019-03-20T00:14:46.580Z,98.27
2019-03-20T00:17:15.868Z,98.36
2019-03-20T00:19:45.142Z,98.89
2019-03-20T00:22:14.430Z,98.31
2019-03-20T00:24:43.737Z,99.28
2019-03-20T00:27:13.009Z,97.93
2019-03-20T00:29:42.286Z,98.58
2019-03-20T00:32:11.574Z,98.41
2019-03-20T00:34:40.863Z,98.63
2019-03-20T00:37:10.137Z,99.13
2019-03-20T00:39:39.414Z,99.10
2019-03-20T00:42:08.680Z,98.89
2019-03-20T00:44:37.940Z,98.69
2019-03-20T00:47:07.224Z,99.22
2019-03-20T00:49:36.491Z,98.90
2019-03-20T00:54:40.643Z,99.66
2019-03-20T00:57:09.916Z,99.67
2019-03-20T00:59:39.191Z,99.27
2019-03-20T01:02:08.464Z,100.00
2019-03-20T01:04:37.851Z,99.64
2019-03-20T01:07:07.120Z,99.90
2019-03-20T01:09:55.302Z,99.21
2019-03-20T01:12:24.604Z,100.00
2019-03-20T01:14:53.893Z,99.66
2019-03-20T01:17:23.174Z,99.55
2019-03-20T01:19:52.475Z,99.52
2019-03-20T01:22:21.756Z,99.64
2019-03-20T01:24:51.049Z,99.24
2019-03-20T01:27:20.340Z,100.00
2019-03-20T01:29:49.609Z,100.00
2019-03-20T01:32:18.925Z,99.86
2019-03-20T01:34:48.199Z,99.63
2019-03-20T01:37:17.488Z,100.00
2019-03-20T01:42:42.338Z,99.95
2019-03-20T01:45:11.699Z,100.00
2019-03-20T01:47:40.989Z,100.00
2019-03-20T01:50:10.290Z,100.00
2019-03-20T01:52:39.557Z,100.00
2019-03-20T01:55:27.800Z,99.76
2019-03-20T01:57:57.065Z,99.77
2019-03-20T02:00:26.348Z,100.00
2019-03-20T02:02:55.649Z,100.00
2019-03-20T02:05:35.277Z,100.00
2019-03-20T02:07:56.003Z,100.00
2019-03-20T02:10:25.293Z,99.69
2019-03-20T02:12:54.565Z,99.46
2019-03-20T02:15:23.852Z,99.41
2019-03-20T02:17:53.127Z,99.88
2019-03-20T02:21:01.746Z,99.28
2019-03-20T02:23:31.038Z,99.18
2019-03-20T02:26:00.310Z,98.81
2019-03-20T02:28:29.617Z,99.53
2019-03-20T02:34:07.524Z,98.39
2019-03-20T02:36:36.806Z,98.51
2019-03-20T02:39:07.860Z,98.83
2019-03-20T02:41:37.155Z,99.22
2019-03-20T02:44:06.442Z,99.16
2019-03-20T02:46:35.833Z,99.55
2019-03-20T02:49:05.106Z,99.20
2019-03-20T02:51:34.379Z,99.70
2019-03-20T02:54:03.654Z,99.67
2019-03-20T02:56:32.927Z,99.91
2019-03-20T02:59:02.199Z,99.84
2019-03-20T03:01:31.490Z,100.00
2019-03-20T03:04:00.788Z,100.00
2019-03-20T03:06:30.069Z,100.00
2019-03-20T03:08:59.375Z,100.00
2019-03-20T03:11:28.648Z,100.00
2019-03-20T03:13:57.956Z,100.00
2019-03-20T03:16:27.291Z,100.00
2019-03-20T03:18:56.578Z,100.00
2019-03-20T03:24:00.929Z,100.00
2019-03-20T03:26:30.219Z,100.00
2019-03-20T03:28:59.505Z,100.00
2019-03-20T03:31:28.811Z,100.00
2019-03-20T03:33:58.106Z,100.00
2019-03-20T03:36:27.383Z,100.00
2019-03-20T03:38:56.660Z,100.00
2019-03-20T03:41:25.962Z,100.00
2019-03-20T03:43:55.265Z,100.00
2019-03-20T03:46:24.540Z,100.00
2019-03-20T03:51:28.253Z,100.00
2019-03-20T03:53:57.538Z,100.00
2019-03-20T03:56:26.834Z,100.00
2019-03-20T03:58:56.126Z,100.00
2019-03-20T04:01:25.408Z,100.00
2019-03-20T04:03:54.712Z,100.00
2019-03-20T04:06:34.949Z,100.00
2019-03-20T04:08:54.978Z,100.00
2019-03-20T04:11:24.271Z,100.00
2019-03-20T04:13:53.542Z,100.00
2019-03-20T04:16:22.820Z,100.00
2019-03-20T04:18:52.170Z,100.00
2019-03-20T04:21:21.455Z,100.00
2019-03-20T04:23:50.752Z,100.00
2019-03-20T04:26:20.034Z,100.00
2019-03-20T04:28:49.326Z,100.00
2019-03-20T04:31:18.600Z,100.00
2019-03-20T04:36:22.203Z,100.00
2019-03-20T04:38:51.490Z,100.00
2019-03-20T04:41:20.782Z,100.00
2019-03-20T04:43:50.068Z,100.00
2019-03-20T04:46:19.375Z,100.00
2019-03-20T04:48:48.674Z,100.00
2019-03-20T04:51:17.951Z,100.00
2019-03-20T04:53:47.260Z,100.00
2019-03-20T04:56:16.521Z,100.00
2019-03-20T04:58:45.819Z,100.00
2019-03-20T05:01:15.129Z,100.00
2019-03-20T05:03:44.402Z,100.00
2019-03-20T05:06:13.707Z,100.00
2019-03-20T05:08:42.995Z,100.00
2019-03-20T05:11:12.369Z,100.00
2019-03-20T05:13:41.649Z,100.00
2019-03-20T05:16:10.945Z,100.00
2019-03-20T05:18:40.217Z,100.00
2019-03-20T05:21:09.502Z,100.00
2019-03-20T05:23:38.791Z,100.00
2019-03-20T05:26:08.083Z,100.00
2019-03-20T05:28:37.382Z,100.00
2019-03-20T05:31:06.667Z,100.00
2019-03-20T05:33:35.944Z,100.00
2019-03-20T05:36:05.271Z,100.00
2019-03-20T05:38:34.536Z,100.00
2019-03-20T05:43:39.281Z,100.00
2019-03-20T05:46:08.579Z,100.00
2019-03-20T05:48:37.853Z,100.00
2019-03-20T05:51:07.235Z,100.00
2019-03-20T05:53:36.519Z,100.00
2019-03-20T05:56:05.803Z,100.00
2019-03-20T05:58:35.097Z,100.00
2019-03-20T06:01:06.479Z,100.00
2019-03-20T06:03:35.772Z,100.00
2019-03-20T06:06:05.088Z,100.00
2019-03-20T06:08:34.371Z,100.00
2019-03-20T06:11:03.685Z,100.00
2019-03-20T06:13:33.082Z,100.00
2019-03-20T06:16:02.531Z,100.00
2019-03-20T06:18:31.808Z,100.00
2019-03-20T06:21:01.147Z,100.00
2019-03-20T06:23:30.418Z,100.00
2019-03-20T06:25:59.703Z,100.00
2019-03-20T06:28:29.040Z,100.00
2019-03-20T06:30:58.411Z,100.00
2019-03-20T06:33:27.790Z,100.00
2019-03-20T06:36:05.396Z,100.00
2019-03-20T06:41:29.743Z,100.00
2019-03-20T06:43:59.013Z,100.00
2019-03-20T06:46:28.320Z,100.00
2019-03-20T06:48:57.666Z,100.00
2019-03-20T06:51:27.090Z,100.00
2019-03-20T06:53:56.575Z,100.00
2019-03-20T06:56:28.099Z,100.00
2019-03-20T06:59:35.512Z,100.00
2019-03-20T07:02:44.230Z,100.00
2019-03-20T07:05:48.560Z,100.00
2019-03-20T07:08:57.210Z,100.00
2019-03-20T07:11:24.777Z,100.00
2019-03-20T07:13:54.073Z,100.00
2019-03-20T07:16:23.373Z,100.00
2019-03-20T07:18:52.667Z,100.00
2019-03-20T07:21:21.943Z,100.00
2019-03-20T07:23:51.247Z,100.00
2019-03-20T07:26:20.546Z,100.00
2019-03-20T07:28:49.860Z,100.00
2019-03-20T07:33:56.364Z,100.00
2019-03-20T07:39:00.879Z,100.00
2019-03-20T07:41:30.181Z,100.00
2019-03-20T07:43:59.471Z,100.00
2019-03-20T07:46:28.779Z,100.00
2019-03-20T07:48:58.067Z,100.00
2019-03-20T07:51:27.390Z,100.00
2019-03-20T07:53:56.704Z,100.00
2019-03-20T07:56:26.010Z,100.00
2019-03-20T07:58:55.312Z,100.00
2019-03-20T08:01:24.631Z,100.00
2019-03-20T08:03:53.931Z,100.00
2019-03-20T08:06:23.227Z,100.00
2019-03-20T08:08:52.538Z,100.00
2019-03-20T08:11:21.831Z,100.00
2019-03-20T08:13:51.122Z,100.00
2019-03-20T08:16:20.451Z,100.00
2019-03-20T08:19:29.071Z,100.00
2019-03-20T08:21:58.375Z,100.00
2019-03-20T08:24:27.682Z,100.00
2019-03-20T08:26:56.955Z,100.00
2019-03-20T08:29:26.242Z,100.00
2019-03-20T08:31:55.542Z,100.00
2019-03-20T08:34:24.836Z,100.00
2019-03-20T08:36:54.147Z,100.00
2019-03-20T08:39:23.420Z,100.00
2019-03-20T08:41:52.714Z,100.00
2019-03-20T08:44:22.041Z,100.00
2019-03-20T08:46:51.329Z,100.00
2019-03-20T08:49:20.628Z,100.00
2019-03-20T08:51:49.922Z,100.00
2019-03-20T08:54:19.229Z,100.00
2019-03-20T08:56:48.566Z,100.00
2019-03-20T08:59:18.222Z,100.00
2019-03-20T09:01:48.878Z,100.00
2019-03-20T09:04:18.180Z,100.00
2019-03-20T09:06:47.519Z,100.00
2019-03-20T09:09:16.809Z,100.00
2019-03-20T09:11:46.165Z,100.00
2019-03-20T09:14:15.454Z,100.00
2019-03-20T09:16:44.778Z,100.00
2019-03-20T09:19:14.055Z,100.00
2019-03-20T09:21:43.401Z,100.00
2019-03-20T09:24:12.658Z,100.00
2019-03-20T09:26:41.942Z,100.00
2019-03-20T09:29:18.600Z,100.00
2019-03-20T09:31:42.302Z,100.00
2019-03-20T09:34:11.614Z,100.00
2019-03-20T09:36:43.404Z,100.00
2019-03-20T09:39:11.934Z,100.00
2019-03-20T09:41:41.272Z,100.00
2019-03-20T09:44:10.573Z,100.00
2019-03-20T09:46:39.866Z,100.00
2019-03-20T09:49:09.146Z,100.00
2019-03-20T09:51:38.440Z,100.00
2019-03-20T09:54:07.756Z,100.00
2019-03-20T09:56:37.104Z,100.00
2019-03-20T09:59:26.848Z,100.00
2019-03-20T10:01:56.200Z,100.00
2019-03-20T10:04:25.496Z,100.00
2019-03-20T10:06:54.925Z,100.00
2019-03-20T10:09:24.249Z,100.00
2019-03-20T10:11:53.551Z,100.00
2019-03-20T10:14:22.863Z,100.00
2019-03-20T10:16:52.196Z,100.00
2019-03-20T10:19:21.503Z,100.00
2019-03-20T10:21:50.803Z,100.00
2019-03-20T10:24:20.105Z,100.00
2019-03-20T10:27:08.489Z,100.00
2019-03-20T10:29:37.825Z,100.00
2019-03-20T10:32:07.105Z,100.00
2019-03-20T10:34:39.704Z,100.00
2019-03-20T10:39:40.985Z,100.00
2019-03-20T10:42:10.278Z,100.00
2019-03-20T10:44:39.575Z,100.00
2019-03-20T10:47:11.535Z,100.00
2019-03-20T10:49:39.960Z,100.00
2019-03-20T10:52:09.334Z,100.00
2019-03-20T10:54:38.625Z,100.00
2019-03-20T10:57:07.911Z,100.00
2019-03-20T10:59:56.121Z,100.00
2019-03-20T11:02:25.424Z,100.00
2019-03-20T11:04:54.727Z,100.00
2019-03-20T11:07:24.043Z,100.00
2019-03-20T11:09:53.333Z,99.44
2019-03-20T11:12:22.837Z,98.71
2019-03-20T11:14:52.122Z,98.90
2019-03-20T11:17:21.465Z,98.65
2019-03-20T11:19:50.804Z,97.22
2019-03-20T11:22:20.085Z,96.51
2019-03-20T11:24:49.414Z,96.88
2019-03-20T11:27:18.734Z,96.23
2019-03-20T11:29:48.093Z,95.13
2019-03-20T11:32:17.363Z,93.95
2019-03-20T11:34:46.661Z,94.62
2019-03-20T11:37:15.932Z,93.34
2019-03-20T11:40:04.132Z,91.40
2019-03-20T11:42:33.427Z,90.82
2019-03-20T11:45:02.701Z,89.38
2019-03-20T11:47:32.003Z,88.64
2019-03-20T11:50:01.291Z,89.01
2019-03-20T11:52:30.563Z,89.29
2019-03-20T11:54:59.849Z,88.71
2019-03-20T11:57:29.144Z,88.38
2019-03-20T11:59:58.471Z,89.04
2019-03-20T12:02:28.657Z,87.97
2019-03-20T12:04:58.731Z,88.36
2019-03-20T12:07:28.027Z,88.35
2019-03-20T12:09:58.903Z,87.17
2019-03-20T12:12:28.370Z,85.50
2019-03-20T12:14:57.726Z,86.64
2019-03-20T12:17:27.002Z,86.27
2019-03-20T12:19:56.318Z,86.32
2019-03-20T12:22:25.642Z,84.70
2019-03-20T12:24:54.921Z,85.56
2019-03-20T12:27:24.200Z,81.98
2019-03-20T12:29:53.649Z,81.98
2019-03-20T12:32:22.925Z,83.44
2019-03-20T12:34:52.249Z,84.02
2019-03-20T12:37:21.546Z,82.59
2019-03-20T12:39:53.329Z,82.59
2019-03-20T12:42:21.834Z,83.54
2019-03-20T12:44:51.101Z,81.80
2019-03-20T12:47:20.389Z,82.19
2019-03-20T12:49:49.659Z,82.54
2019-03-20T12:52:18.934Z,83.88
2019-03-20T12:54:48.216Z,80.78
2019-03-20T12:57:17.501Z,81.13
2019-03-20T12:59:46.791Z,81.37
2019-03-20T13:02:16.079Z,81.87
2019-03-20T13:04:45.401Z,81.84
2019-03-20T13:07:14.687Z,80.98
2019-03-20T13:09:43.991Z,81.41
2019-03-20T13:12:13.270Z,81.18
2019-03-20T13:14:42.600Z,80.88
2019-03-20T13:17:11.891Z,81.32
2019-03-20T13:19:41.265Z,81.54
2019-03-20T13:22:10.600Z,80.74
2019-03-20T13:24:39.874Z,80.26
2019-03-20T13:27:09.236Z,80.66
2019-03-20T13:29:38.533Z,81.16
2019-03-20T13:32:07.810Z,80.55
2019-03-20T13:34:37.105Z,80.23
2019-03-20T13:37:06.386Z,79.42
2019-03-20T13:39:35.701Z,81.01
2019-03-20T13:42:04.944Z,78.85
2019-03-20T13:44:34.206Z,78.29
2019-03-20T13:47:03.485Z,78.82
2019-03-20T13:49:32.775Z,78.95
2019-03-20T13:52:02.050Z,79.22
2019-03-20T13:54:31.317Z,78.86
2019-03-20T13:57:00.609Z,78.68
2019-03-20T13:59:29.877Z,77.84
2019-03-20T14:01:59.225Z,79.06
2019-03-20T14:04:28.579Z,78.77
2019-03-20T14:06:57.862Z,78.36
2019-03-20T14:09:27.139Z,78.53
2019-03-20T14:11:56.440Z,78.71
2019-03-20T14:14:25.698Z,78.24
2019-03-20T14:16:54.976Z,78.93
2019-03-20T14:19:24.278Z,77.89
2019-03-20T14:21:53.559Z,77.56
2019-03-20T14:24:22.822Z,77.36
2019-03-20T14:26:52.114Z,77.34
2019-03-20T14:29:21.382Z,77.76
2019-03-20T14:34:39.023Z,77.10
2019-03-20T14:37:08.302Z,77.52
2019-03-20T14:39:37.624Z,77.55
2019-03-20T14:42:06.899Z,77.34
2019-03-20T14:44:36.203Z,77.36
2019-03-20T14:47:05.584Z,78.20
2019-03-20T14:49:34.886Z,78.80
2019-03-20T14:52:04.388Z,79.52
2019-03-20T14:54:33.472Z,80.36
2019-03-20T14:57:02.802Z,80.27
2019-03-20T15:00:11.457Z,81.02
2019-03-20T15:02:40.743Z,81.34
2019-03-20T15:05:10.758Z,81.92
2019-03-20T15:07:40.938Z,82.56
2019-03-20T15:10:14.946Z,82.74
2019-03-20T15:12:45.115Z,83.37
2019-03-20T15:15:35.183Z,84.00
2019-03-20T15:18:05.359Z,84.01
2019-03-20T15:20:35.379Z,84.95
2019-03-20T15:23:05.304Z,85.18
2019-03-20T15:25:34.676Z,85.70
2019-03-20T15:31:12.576Z,85.17
2019-03-20T15:33:42.535Z,85.28
2019-03-20T15:36:11.908Z,85.44
2019-03-20T15:38:41.228Z,85.85
2019-03-20T15:41:10.889Z,85.92
2019-03-20T15:43:40.187Z,86.19
2019-03-20T15:46:09.544Z,86.32
2019-03-20T15:48:38.925Z,86.53
2019-03-20T15:51:08.295Z,86.30
2019-03-20T15:53:37.640Z,86.55
2019-03-20T15:56:26.040Z,87.13
2019-03-20T15:58:55.323Z,87.13
2019-03-20T16:01:24.610Z,87.54
2019-03-20T16:03:53.900Z,87.69
2019-03-20T16:06:23.211Z,87.79
2019-03-20T16:08:54.949Z,87.84
2019-03-20T16:11:23.537Z,87.68
2019-03-20T16:13:53.407Z,88.18
2019-03-20T16:16:22.691Z,88.38
2019-03-20T16:18:51.982Z,88.79
2019-03-20T16:21:21.296Z,88.62
2019-03-20T16:23:50.624Z,88.90
2019-03-20T16:26:19.948Z,89.35
2019-03-20T16:28:49.238Z,89.62
2019-03-20T16:31:18.732Z,90.14
2019-03-20T16:33:48.052Z,89.84
2019-03-20T16:36:17.348Z,90.13
2019-03-20T16:39:07.310Z,90.68
2019-03-20T16:41:36.609Z,90.68
2019-03-20T16:44:06.004Z,90.87
2019-03-20T16:46:35.286Z,91.07
2019-03-20T16:49:43.902Z,91.51
2019-03-20T16:52:13.249Z,91.53
2019-03-20T16:54:42.522Z,91.86
2019-03-20T16:57:11.815Z,92.03
2019-03-20T16:59:41.083Z,92.35
2019-03-20T17:02:10.403Z,92.39
2019-03-20T17:04:39.705Z,92.87
2019-03-20T17:07:28.044Z,93.59
2019-03-20T17:10:16.219Z,93.35
2019-03-20T17:12:45.543Z,93.35
2019-03-20T17:15:17.735Z,93.70
2019-03-20T17:17:47.109Z,93.65
2019-03-20T17:20:57.857Z,94.33
2019-03-20T17:23:26.691Z,94.38
2019-03-20T17:25:55.974Z,95.43
2019-03-20T17:28:25.328Z,95.41
2019-03-20T17:30:54.648Z,95.64
2019-03-20T17:33:23.946Z,95.57
2019-03-20T17:36:12.233Z,95.60
2019-03-20T17:38:41.522Z,95.99
2019-03-20T17:41:10.845Z,95.77
2019-03-20T17:43:40.194Z,96.03
2019-03-20T17:46:09.676Z,96.04
2019-03-20T17:48:39.051Z,95.76
2019-03-20T17:51:08.321Z,96.19
2019-03-20T17:53:37.736Z,96.50
2019-03-20T17:56:07.059Z,96.12
2019-03-20T17:58:36.389Z,96.42
2019-03-20T18:01:45.046Z,96.14
2019-03-20T18:04:14.342Z,96.50
2019-03-20T18:06:43.623Z,96.63
2019-03-20T18:09:12.945Z,96.66
2019-03-20T18:11:47.431Z,96.66
2019-03-20T18:14:13.374Z,96.27
2019-03-20T18:16:42.671Z,96.54
2019-03-20T18:19:12.002Z,96.16
2019-03-20T18:21:41.357Z,96.36
2019-03-20T18:24:10.666Z,96.70
2019-03-20T18:26:39.970Z,96.83
2019-03-20T18:29:09.305Z,96.77
2019-03-20T18:31:46.038Z,96.93
2019-03-20T18:34:09.643Z,96.74
2019-03-20T18:36:38.971Z,96.77
2019-03-20T18:42:22.735Z,96.82
2019-03-20T18:44:52.039Z,97.11
2019-03-20T18:47:21.358Z,97.48
2019-03-20T18:49:50.793Z,97.41
2019-03-20T18:52:20.112Z,97.14
2019-03-20T18:54:49.535Z,97.65
2019-03-20T18:57:18.795Z,97.70
2019-03-20T18:59:48.114Z,97.42
2019-03-20T19:02:17.446Z,97.34
2019-03-20T19:04:46.744Z,96.87
2019-03-20T19:07:16.135Z,97.54
2019-03-20T19:09:45.540Z,97.23
2019-03-20T19:12:15.308Z,97.63
2019-03-20T19:14:44.768Z,96.86
2019-03-20T19:17:14.093Z,97.05
2019-03-20T19:20:02.504Z,96.79
2019-03-20T19:22:31.781Z,97.10
2019-03-20T19:25:01.237Z,97.36
2019-03-20T19:27:30.569Z,96.87
2019-03-20T19:29:59.894Z,96.86
2019-03-20T19:32:29.212Z,96.73
2019-03-20T19:34:58.656Z,96.70
2019-03-20T19:37:28.024Z,96.31
2019-03-20T19:39:57.338Z,96.35
2019-03-20T19:42:26.715Z,96.02
2019-03-20T19:44:56.015Z,95.96
2019-03-20T19:47:25.421Z,95.74
2019-03-20T19:49:54.746Z,95.99
2019-03-20T19:52:24.045Z,95.95
2019-03-20T19:54:53.348Z,95.80
2019-03-20T19:57:22.716Z,96.07
2019-03-20T19:59:52.071Z,95.77
2019-03-20T20:02:21.383Z,95.86
2019-03-20T20:04:50.714Z,95.36
2019-03-20T20:07:19.997Z,95.36
2019-03-20T20:09:49.324Z,95.26
2019-03-20T20:12:19.202Z,95.04
2019-03-20T20:14:49.695Z,95.11
2019-03-20T20:17:18.999Z,94.92
2019-03-20T20:19:48.308Z,94.80
2019-03-20T20:22:17.623Z,94.79
2019-03-20T20:24:46.930Z,94.76
2019-03-20T20:30:04.825Z,94.63
2019-03-20T20:32:34.112Z,95.33
2019-03-20T20:35:22.332Z,95.02
2019-03-20T20:37:51.640Z,95.26
2019-03-20T20:40:20.940Z,95.54
2019-03-20T20:42:50.331Z,95.77
2019-03-20T20:45:19.630Z,95.67
2019-03-20T20:47:48.935Z,95.79
2019-03-20T20:50:57.612Z,95.22
2019-03-20T20:53:26.942Z,96.36
2019-03-20T20:55:56.299Z,96.32
2019-03-20T20:58:25.663Z,96.10
2019-03-20T21:00:55.040Z,96.42
2019-03-20T21:03:24.352Z,96.00
2019-03-20T21:05:53.714Z,96.08
2019-03-20T21:08:23.022Z,96.58
2019-03-20T21:10:52.396Z,96.03
2019-03-20T21:13:40.738Z,96.15
2019-03-20T21:16:10.561Z,96.06
2019-03-20T21:19:18.194Z,96.11
2019-03-20T21:22:21.705Z,96.29
2019-03-20T21:24:51.557Z,96.83
2019-03-20T21:27:58.867Z,97.09
2019-03-20T21:31:06.213Z,96.85
2019-03-20T21:34:13.561Z,97.18
2019-03-20T21:37:20.862Z,97.18
2019-03-20T21:40:09.389Z,97.37
2019-03-20T21:43:07.199Z,97.86
2019-03-20T21:46:00.470Z,97.72
2019-03-20T21:48:30.306Z,98.15
2019-03-20T21:54:34.375Z,98.16
2019-03-20T21:57:41.706Z,98.81
2019-03-20T22:00:36.135Z,98.20
2019-03-20T22:03:05.973Z,98.80
2019-03-20T22:06:13.264Z,98.50
2019-03-20T22:08:43.164Z,99.12
2019-03-20T22:11:50.470Z,98.87
2019-03-20T22:14:20.284Z,99.12
2019-03-20T22:17:27.594Z,99.78
2019-03-20T22:20:19.403Z,99.41
2019-03-20T22:23:26.711Z,99.32
2019-03-20T22:26:34.000Z,99.97
2019-03-20T22:29:29.474Z,100.00
2019-03-20T22:32:36.768Z,99.78
2019-03-20T22:35:44.120Z,100.00
2019-03-20T22:38:51.415Z,100.00
2019-03-20T22:41:58.720Z,100.00
2019-03-20T22:44:28.606Z,100.00
2019-03-20T22:47:35.914Z,100.00
2019-03-20T22:50:43.210Z,100.00
2019-03-20T22:53:50.520Z,100.00
2019-03-20T22:56:42.739Z,100.00
2019-03-20T22:59:23.656Z,100.00
2019-03-20T23:05:10.140Z,100.00
2019-03-20T23:07:39.959Z,100.00
2019-03-20T23:10:12.485Z,100.00
2019-03-20T23:12:42.295Z,100.00
2019-03-20T23:15:14.584Z,100.00
2019-03-20T23:17:44.390Z,100.00
2019-03-20T23:20:17.022Z,100.00
2019-03-20T23:22:46.858Z,100.00
2019-03-20T23:25:16.674Z,100.00
2019-03-20T23:27:46.495Z,100.00
2019-03-20T23:30:19.378Z,100.00
2019-03-20T23:32:49.207Z,100.00
2019-03-20T23:35:19.031Z,100.00
2019-03-20T23:37:48.854Z,100.00
2019-03-20T23:40:18.675Z,100.00
2019-03-20T23:42:48.630Z,100.00
2019-03-20T23:45:19.043Z,100.00
2019-03-20T23:48:10.100Z,100.00
2019-03-20T23:50:39.944Z,100.00
2019-03-20T23:53:09.778Z,100.00
2019-03-20T23:55:39.596Z,100.00
2019-03-20T23:58:09.416Z,100.00
